createdAt,value
2023-04-16T00:00:54.223Z,101816.69
2023-04-16T00:03:22.148Z,101809.63
2023-04-16T00:05:50.039Z,101821.13
2023-04-16T00:08:17.705Z,101814.94
2023-04-16T00:10:46.814Z,101811.44
2023-04-16T00:13:14.558Z,101816.69
2023-04-16T00:15:42.171Z,101806.09
2023-04-16T00:18:09.920Z,101817.69
2023-04-16T00:20:37.953Z,101816.84
2023-04-16T00:23:05.720Z,101816.94
2023-04-16T00:25:33.364Z,101817.00
2023-04-16T00:28:02.883Z,101816.94
2023-04-16T00:30:30.574Z,101815.06
2023-04-16T00:32:58.440Z,101816.81
2023-04-16T00:35:26.307Z,101818.66
2023-04-16T00:37:53.986Z,101816.91
2023-04-16T00:40:22.048Z,101818.75
2023-04-16T00:42:49.756Z,101821.44
2023-04-16T00:45:18.839Z,101812.56
2023-04-16T00:47:46.812Z,101820.41
2023-04-16T00:50:15.184Z,101820.47
2023-04-16T00:52:43.676Z,101822.19
2023-04-16T00:55:13.371Z,101825.75
2023-04-16T00:57:41.081Z,101824.03
2023-04-16T01:00:09.825Z,101831.91
2023-04-16T01:02:39.336Z,101825.84
2023-04-16T01:05:07.790Z,101829.44
2023-04-16T01:07:35.759Z,101829.47
2023-04-16T01:10:04.074Z,101819.69
2023-04-16T01:12:32.518Z,101823.09
2023-04-16T01:15:00.744Z,101836.50
2023-04-16T01:17:28.483Z,101839.19
2023-04-16T01:20:00.593Z,101841.88
2023-04-16T01:22:29.902Z,101841.78
2023-04-16T01:24:57.639Z,101841.72
2023-04-16T01:27:25.535Z,101838.13
2023-04-16T01:29:53.378Z,101845.22
2023-04-16T01:32:21.094Z,101848.91
2023-04-16T01:34:48.791Z,101848.03
2023-04-16T01:37:16.602Z,101848.97
2023-04-16T01:39:45.788Z,101839.19
2023-04-16T01:42:13.449Z,101847.03
2023-04-16T01:44:41.125Z,101848.88
2023-04-16T01:47:09.515Z,101842.44
2023-04-16T01:49:37.602Z,101845.91
2023-04-16T01:52:05.650Z,101845.09
2023-04-16T01:54:33.680Z,101844.31
2023-04-16T01:57:03.189Z,101844.31
2023-04-16T01:59:30.877Z,101839.97
2023-04-16T02:02:02.352Z,101846.19
2023-04-16T02:04:30.101Z,101843.53
2023-04-16T02:06:57.760Z,101839.97
2023-04-16T02:09:25.598Z,101843.47
2023-04-16T02:11:53.289Z,101847.03
2023-04-16T02:14:25.496Z,101841.63
2023-04-16T02:16:53.324Z,101841.78
2023-04-16T02:19:21.712Z,101837.38
2023-04-16T02:21:49.602Z,101844.44
2023-04-16T02:24:17.300Z,101841.69
2023-04-16T02:26:45.050Z,101840.88
2023-04-16T02:29:12.758Z,101852.44
2023-04-16T02:31:41.899Z,101846.16
2023-04-16T02:34:09.672Z,101844.34
2023-04-16T02:36:37.868Z,101850.69
2023-04-16T02:39:06.289Z,101845.44
2023-04-16T02:41:34.032Z,101846.19
2023-04-16T02:44:02.007Z,101849.75
2023-04-16T02:46:29.727Z,101848.78
2023-04-16T02:48:58.792Z,101856.69
2023-04-16T02:51:27.704Z,101846.09
2023-04-16T02:53:55.384Z,101857.63
2023-04-16T02:56:23.060Z,101843.34
2023-04-16T02:58:50.715Z,101849.72
2023-04-16T03:01:18.477Z,101857.53
2023-04-16T03:03:46.334Z,101848.66
2023-04-16T03:06:15.576Z,101851.41
2023-04-16T03:08:43.304Z,101841.50
2023-04-16T03:11:11.014Z,101854.03
2023-04-16T03:13:38.787Z,101845.19
2023-04-16T03:16:07.667Z,101847.78
2023-04-16T03:18:35.674Z,101853.19
2023-04-16T03:21:03.575Z,101852.41
2023-04-16T03:23:32.932Z,101850.56
2023-04-16T03:26:00.662Z,101850.56
2023-04-16T03:28:28.345Z,101856.88
2023-04-16T03:30:56.070Z,101856.09
2023-04-16T03:33:23.776Z,101858.72
2023-04-16T03:35:57.181Z,101855.19
2023-04-16T03:38:25.042Z,101860.44
2023-04-16T03:40:54.118Z,101859.53
2023-04-16T03:43:22.145Z,101851.53
2023-04-16T03:45:49.983Z,101860.44
2023-04-16T03:48:17.691Z,101858.69
2023-04-16T03:50:47.897Z,101856.88
2023-04-16T03:53:15.907Z,101854.19
2023-04-16T03:55:43.843Z,101853.38
2023-04-16T03:58:12.945Z,101863.16
2023-04-16T04:00:42.780Z,101866.72
2023-04-16T04:03:10.986Z,101867.63
2023-04-16T04:05:39.059Z,101864.84
2023-04-16T04:08:07.007Z,101874.59
2023-04-16T04:10:35.379Z,101871.09
2023-04-16T04:13:04.876Z,101865.75
2023-04-16T04:15:34.039Z,101867.56
2023-04-16T04:18:01.813Z,101875.63
2023-04-16T04:20:29.756Z,101874.81
2023-04-16T04:22:57.597Z,101881.13
2023-04-16T04:25:25.528Z,101881.13
2023-04-16T04:27:53.238Z,101888.25
2023-04-16T04:30:21.085Z,101879.28
2023-04-16T04:32:50.696Z,101876.66
2023-04-16T04:35:18.601Z,101884.72
2023-04-16T04:37:46.498Z,101884.72
2023-04-16T04:40:14.201Z,101884.66
2023-04-16T04:42:41.917Z,101903.34
2023-04-16T04:45:11.508Z,101892.56
2023-04-16T04:47:39.322Z,101896.13
2023-04-16T04:50:09.703Z,101895.19
2023-04-16T04:52:37.620Z,101908.56
2023-04-16T04:55:06.098Z,101908.44
2023-04-16T04:57:33.748Z,101906.78
2023-04-16T05:00:03.688Z,101913.09
2023-04-16T05:02:31.607Z,101897.94
2023-04-16T05:04:59.389Z,101915.75
2023-04-16T05:07:28.467Z,101909.59
2023-04-16T05:09:56.122Z,101908.75
2023-04-16T05:12:23.916Z,101915.00
2023-04-16T05:14:51.615Z,101923.00
2023-04-16T05:17:19.504Z,101922.06
2023-04-16T05:19:47.258Z,101923.84
2023-04-16T05:22:18.763Z,101923.88
2023-04-16T05:24:47.885Z,101923.88
2023-04-16T05:27:15.814Z,101926.44
2023-04-16T05:29:43.479Z,101926.44
2023-04-16T05:32:11.217Z,101931.69
2023-04-16T05:34:38.951Z,101936.28
2023-04-16T05:37:06.631Z,101938.03
2023-04-16T05:39:34.340Z,101938.00
2023-04-16T05:42:03.529Z,101949.63
2023-04-16T05:44:31.237Z,101957.56
2023-04-16T05:46:58.931Z,101955.00
2023-04-16T05:49:26.634Z,101952.25
2023-04-16T05:51:54.389Z,101952.09
2023-04-16T05:54:22.312Z,101952.06
2023-04-16T05:56:49.949Z,101954.78
2023-04-16T05:59:19.007Z,101958.47
2023-04-16T06:01:46.733Z,101961.25
2023-04-16T06:04:14.580Z,101971.06
2023-04-16T06:06:43.972Z,101972.78
2023-04-16T06:09:12.268Z,101970.09
2023-04-16T06:11:40.112Z,101980.78
2023-04-16T06:14:08.031Z,101979.06
2023-04-16T06:16:38.775Z,101978.25
2023-04-16T06:19:06.516Z,101983.56
2023-04-16T06:21:34.631Z,101990.66
2023-04-16T06:24:02.398Z,101981.81
2023-04-16T06:26:30.060Z,101994.38
2023-04-16T06:28:59.864Z,101990.88
2023-04-16T06:31:27.964Z,101990.91
2023-04-16T06:33:57.036Z,101989.19
2023-04-16T06:36:24.747Z,102001.78
2023-04-16T06:38:52.411Z,101998.31
2023-04-16T06:41:20.248Z,101997.44
2023-04-16T06:43:47.988Z,101992.91
2023-04-16T06:46:15.850Z,101991.97
2023-04-16T06:48:43.676Z,102000.97
2023-04-16T06:51:13.277Z,102004.50
2023-04-16T06:53:42.418Z,102004.44
2023-04-16T06:56:10.185Z,102007.13
2023-04-16T06:58:38.121Z,102007.16
2023-04-16T07:01:06.125Z,102008.09
2023-04-16T07:03:34.058Z,102005.31
2023-04-16T07:06:02.342Z,102012.47
2023-04-16T07:08:31.451Z,102010.78
2023-04-16T07:10:59.351Z,102008.22
2023-04-16T07:13:27.643Z,102007.41
2023-04-16T07:15:55.461Z,102017.25
2023-04-16T07:18:23.472Z,102014.66
2023-04-16T07:20:51.272Z,102012.06
2023-04-16T07:23:19.033Z,102006.94
2023-04-16T07:25:48.257Z,102015.91
2023-04-16T07:28:17.582Z,102017.75
2023-04-16T07:30:45.536Z,102016.88
2023-04-16T07:33:13.389Z,102016.03
2023-04-16T07:35:41.151Z,102017.88
2023-04-16T07:38:09.241Z,102028.53
2023-04-16T07:40:38.658Z,102024.88
2023-04-16T07:43:08.446Z,102030.19
2023-04-16T07:45:36.969Z,102032.69
2023-04-16T07:48:05.264Z,102035.31
2023-04-16T07:50:33.387Z,102042.47
2023-04-16T07:53:01.255Z,102041.53
2023-04-16T07:55:29.033Z,102035.44
2023-04-16T07:57:56.789Z,102046.31
2023-04-16T08:00:26.327Z,102051.66
2023-04-16T08:02:54.394Z,102056.19
2023-04-16T08:05:22.350Z,102049.19
2023-04-16T08:07:50.204Z,102054.53
2023-04-16T08:10:18.362Z,102056.31
2023-04-16T08:12:46.295Z,102061.69
2023-04-16T08:15:14.040Z,102063.56
2023-04-16T08:17:43.245Z,102067.13
2023-04-16T08:20:15.021Z,102054.72
2023-04-16T08:22:45.848Z,102061.91
2023-04-16T08:25:13.596Z,102064.63
2023-04-16T08:27:41.399Z,102062.06
2023-04-16T08:30:09.740Z,102063.88
2023-04-16T08:32:37.814Z,102064.84
2023-04-16T08:35:07.710Z,102065.84
2023-04-16T08:37:35.788Z,102076.63
2023-04-16T08:40:03.983Z,102068.66
2023-04-16T08:42:33.559Z,102075.75
2023-04-16T08:45:08.792Z,102082.06
2023-04-16T08:47:37.739Z,102076.75
2023-04-16T08:50:10.018Z,102077.69
2023-04-16T08:52:44.103Z,102075.03
2023-04-16T08:55:15.100Z,102077.72
2023-04-16T08:57:49.993Z,102088.38
2023-04-16T09:00:18.550Z,102090.09
2023-04-16T09:02:46.958Z,102088.25
2023-04-16T09:05:18.127Z,102100.69
2023-04-16T09:07:47.323Z,102098.06
2023-04-16T09:10:16.113Z,102103.38
2023-04-16T09:12:44.583Z,102101.69
2023-04-16T09:15:14.201Z,102102.66
2023-04-16T09:17:43.019Z,102110.81
2023-04-16T09:20:12.494Z,102104.59
2023-04-16T09:22:41.667Z,102099.31
2023-04-16T09:25:11.033Z,102095.84
2023-04-16T09:27:39.126Z,102099.41
2023-04-16T09:30:22.883Z,102101.25
2023-04-16T09:32:51.215Z,102108.38
2023-04-16T09:35:20.003Z,102105.69
2023-04-16T09:37:58.905Z,102097.66
2023-04-16T09:40:30.477Z,102105.72
2023-04-16T09:43:00.742Z,102105.72
2023-04-16T09:45:33.989Z,102109.34
2023-04-16T09:48:05.931Z,102099.50
2023-04-16T09:50:33.679Z,102111.16
2023-04-16T09:53:04.465Z,102108.47
2023-04-16T09:55:32.242Z,102112.09
2023-04-16T09:58:01.243Z,102110.31
2023-04-16T10:00:31.001Z,102107.63
2023-04-16T10:03:05.785Z,102111.22
2023-04-16T10:05:33.639Z,102104.03
2023-04-16T10:08:03.000Z,102116.56
2023-04-16T10:10:30.856Z,102122.84
2023-04-16T10:12:59.021Z,102115.69
2023-04-16T10:15:26.951Z,102117.44
2023-04-16T10:17:55.193Z,102119.22
2023-04-16T10:20:24.913Z,102116.50
2023-04-16T10:22:54.217Z,102122.78
2023-04-16T10:25:24.397Z,102123.66
2023-04-16T10:27:52.750Z,102120.06
2023-04-16T10:30:36.297Z,102120.00
2023-04-16T10:33:06.285Z,102109.28
2023-04-16T10:35:33.998Z,102112.88
2023-04-16T10:38:23.157Z,102120.09
2023-04-16T10:40:59.129Z,102113.81
2023-04-16T10:43:27.017Z,102116.50
2023-04-16T10:45:55.194Z,102127.19
2023-04-16T10:48:26.321Z,102122.72
2023-04-16T10:50:58.515Z,102116.44
2023-04-16T10:53:27.930Z,102114.63
2023-04-16T10:56:12.660Z,102112.84
2023-04-16T10:58:40.401Z,102111.94
2023-04-16T11:01:12.101Z,102120.88
2023-04-16T11:03:43.899Z,102112.84
2023-04-16T11:06:13.520Z,102108.34
2023-04-16T11:08:53.919Z,102112.81
2023-04-16T11:11:24.543Z,102111.94
2023-04-16T11:13:56.953Z,102102.97
2023-04-16T11:16:26.498Z,102111.97
2023-04-16T11:18:56.729Z,102103.03
2023-04-16T11:21:25.412Z,102115.59
2023-04-16T11:23:54.331Z,102112.00
2023-04-16T11:26:25.157Z,102112.91
2023-04-16T11:28:53.384Z,102110.16
2023-04-16T11:31:21.232Z,102114.59
2023-04-16T11:33:49.110Z,102110.16
2023-04-16T11:36:16.952Z,102111.88
2023-04-16T11:38:44.723Z,102105.53
2023-04-16T11:41:13.208Z,102114.53
2023-04-16T11:43:42.313Z,102105.59
2023-04-16T11:46:24.073Z,102113.63
2023-04-16T11:48:56.443Z,102117.16
2023-04-16T11:51:24.408Z,102108.16
2023-04-16T11:53:53.512Z,102116.09
2023-04-16T11:56:29.379Z,102116.84
2023-04-16T11:59:12.408Z,102109.59
2023-04-16T12:01:41.813Z,102121.34
2023-04-16T12:04:10.463Z,102118.66
2023-04-16T12:06:38.861Z,102115.16
2023-04-16T12:09:26.084Z,102117.03
2023-04-16T12:11:54.210Z,102113.41
2023-04-16T12:14:24.194Z,102124.31
2023-04-16T12:16:52.156Z,102118.94
2023-04-16T12:19:20.047Z,102121.59
2023-04-16T12:21:50.314Z,102124.28
2023-04-16T12:24:23.342Z,102125.16
2023-04-16T12:26:56.162Z,102129.69
2023-04-16T12:29:26.230Z,102125.22
2023-04-16T12:31:55.065Z,102128.81
2023-04-16T12:34:49.247Z,102124.34
2023-04-16T12:37:11.303Z,102129.78
2023-04-16T12:39:39.073Z,102117.28
2023-04-16T12:42:11.268Z,102121.78
2023-04-16T12:44:40.603Z,102128.06
2023-04-16T12:47:08.539Z,102129.88
2023-04-16T12:49:38.200Z,102122.63
2023-04-16T12:52:06.385Z,102127.09
2023-04-16T12:54:34.167Z,102130.63
2023-04-16T12:57:01.980Z,102126.09
2023-04-16T12:59:30.000Z,102131.50
2023-04-16T13:01:59.352Z,102126.06
2023-04-16T13:04:27.369Z,102128.78
2023-04-16T13:06:55.354Z,102119.88
2023-04-16T13:09:23.328Z,102126.97
2023-04-16T13:11:51.254Z,102131.44
2023-04-16T13:14:19.073Z,102125.22
2023-04-16T13:16:47.315Z,102130.53
2023-04-16T13:19:19.136Z,102126.13
2023-04-16T13:21:47.065Z,102124.28
2023-04-16T13:24:15.249Z,102122.44
2023-04-16T13:26:43.720Z,102130.50
2023-04-16T13:29:12.131Z,102127.84
2023-04-16T13:31:40.228Z,102120.56
2023-04-16T13:34:08.466Z,102121.22
2023-04-16T13:36:37.902Z,102117.56
2023-04-16T13:39:11.490Z,102111.22
2023-04-16T13:41:39.974Z,102117.50
2023-04-16T13:44:08.492Z,102113.91
2023-04-16T13:46:36.596Z,102114.91
2023-04-16T13:49:04.359Z,102110.31
2023-04-16T13:51:32.109Z,102112.13
2023-04-16T13:54:01.572Z,102114.84
2023-04-16T13:56:29.429Z,102113.13
2023-04-16T13:58:57.272Z,102108.53
2023-04-16T14:01:25.189Z,102117.50
2023-04-16T14:03:56.102Z,102114.88
2023-04-16T14:06:23.922Z,102109.47
2023-04-16T14:08:51.660Z,102104.19
2023-04-16T14:11:20.754Z,102105.09
2023-04-16T14:13:48.631Z,102111.41
2023-04-16T14:16:16.563Z,102105.06
2023-04-16T14:18:44.624Z,102103.19
2023-04-16T14:21:12.396Z,102103.13
2023-04-16T14:23:40.344Z,102103.13
2023-04-16T14:26:08.158Z,102100.34
2023-04-16T14:28:37.463Z,102103.00
2023-04-16T14:31:05.248Z,102100.31
2023-04-16T14:33:33.458Z,102095.75
2023-04-16T14:36:03.214Z,102100.44
2023-04-16T14:38:31.548Z,102104.03
2023-04-16T14:41:00.546Z,102098.69
2023-04-16T14:43:28.539Z,102096.97
2023-04-16T14:45:58.651Z,102102.34
2023-04-16T14:48:26.559Z,102097.88
2023-04-16T14:50:54.817Z,102100.53
2023-04-16T14:53:24.556Z,102099.63
2023-04-16T14:55:53.511Z,102105.06
2023-04-16T14:58:21.946Z,102101.44
2023-04-16T15:00:49.719Z,102106.84
2023-04-16T15:03:19.230Z,102097.81
2023-04-16T15:05:50.766Z,102104.78
2023-04-16T15:08:18.591Z,102092.97
2023-04-16T15:10:46.365Z,102098.94
2023-04-16T15:13:14.221Z,102091.88
2023-04-16T15:15:42.023Z,102097.47
2023-04-16T15:18:10.018Z,102100.31
2023-04-16T15:20:39.277Z,102100.44
2023-04-16T15:23:07.076Z,102093.31
2023-04-16T15:25:34.911Z,102097.91
2023-04-16T15:28:02.963Z,102096.97
2023-04-16T15:30:32.137Z,102090.78
2023-04-16T15:33:00.594Z,102097.03
2023-04-16T15:35:28.420Z,102092.53
2023-04-16T15:37:57.670Z,102102.41
2023-04-16T15:40:26.344Z,102093.34
2023-04-16T15:42:55.915Z,102104.09
2023-04-16T15:45:23.959Z,102106.06
2023-04-16T15:47:52.042Z,102118.69
2023-04-16T15:50:20.822Z,102117.09
2023-04-16T15:52:48.736Z,102112.69
2023-04-16T15:55:19.206Z,102120.81
2023-04-16T15:57:47.098Z,102111.00
2023-04-16T16:00:17.107Z,102107.44
2023-04-16T16:02:46.664Z,102116.41
2023-04-16T16:05:15.639Z,102112.81
2023-04-16T16:07:44.137Z,102120.03
2023-04-16T16:10:13.104Z,102121.00
2023-04-16T16:12:42.865Z,102120.13
2023-04-16T16:15:11.987Z,102114.72
2023-04-16T16:17:40.581Z,102124.63
2023-04-16T16:20:10.394Z,102129.97
2023-04-16T16:22:39.108Z,102133.56
2023-04-16T16:25:10.133Z,102131.75
2023-04-16T16:27:38.138Z,102134.47
2023-04-16T16:30:09.135Z,102141.63
2023-04-16T16:32:37.708Z,102147.91
2023-04-16T16:35:05.983Z,102145.22
2023-04-16T16:37:33.720Z,102149.69
2023-04-16T16:40:01.690Z,102150.59
2023-04-16T16:42:29.484Z,102145.22
2023-04-16T16:44:57.623Z,102147.91
2023-04-16T16:47:26.950Z,102144.31
2023-04-16T16:49:54.874Z,102138.94
2023-04-16T16:52:24.675Z,102138.97
2023-04-16T16:54:52.529Z,102143.44
2023-04-16T16:57:20.793Z,102138.06
2023-04-16T16:59:50.342Z,102137.16
2023-04-16T17:02:18.185Z,102144.31
2023-04-16T17:04:49.524Z,102139.88
2023-04-16T17:07:17.635Z,102141.63
2023-04-16T17:09:46.170Z,102143.44
2023-04-16T17:12:13.929Z,102137.16
2023-04-16T17:14:41.926Z,102143.44
2023-04-16T17:17:09.964Z,102147.00
2023-04-16T17:19:40.645Z,102135.38
2023-04-16T17:22:09.812Z,102134.47
2023-04-16T17:24:37.803Z,102136.25
2023-04-16T17:27:05.855Z,102138.06
2023-04-16T17:29:33.638Z,102139.81
2023-04-16T17:32:01.452Z,102138.94
2023-04-16T17:34:29.358Z,102144.31
2023-04-16T17:36:58.860Z,102139.81
2023-04-16T17:39:27.914Z,102142.50
2023-04-16T17:41:58.470Z,102155.94
2023-04-16T17:44:28.039Z,102151.44
2023-04-16T17:46:55.751Z,102154.09
2023-04-16T17:49:23.480Z,102159.47
2023-04-16T17:51:51.298Z,102166.59
2023-04-16T17:54:19.102Z,102162.97
2023-04-16T17:56:48.224Z,102160.34
2023-04-16T17:59:15.997Z,102162.09
2023-04-16T18:01:49.728Z,102163.91
2023-04-16T18:04:18.124Z,102162.97
2023-04-16T18:06:46.477Z,102163.84
2023-04-16T18:09:14.450Z,102165.66
2023-04-16T18:11:42.535Z,102161.16
2023-04-16T18:14:14.060Z,102169.19
2023-04-16T18:16:45.844Z,102171.00
2023-04-16T18:19:21.522Z,102170.09
2023-04-16T18:21:51.355Z,102168.31
2023-04-16T18:24:20.898Z,102171.03
2023-04-16T18:26:48.914Z,102164.78
2023-04-16T18:29:26.477Z,102171.03
2023-04-16T18:31:55.656Z,102179.06
2023-04-16T18:34:27.014Z,102177.28
2023-04-16T18:36:54.931Z,102176.38
2023-04-16T18:39:23.113Z,102176.31
2023-04-16T18:41:52.807Z,102179.94
2023-04-16T18:44:23.264Z,102185.31
2023-04-16T18:46:51.388Z,102188.00
2023-04-16T18:49:19.199Z,102196.91
2023-04-16T18:51:47.034Z,102196.91
2023-04-16T18:54:15.706Z,102190.66
2023-04-16T18:56:43.659Z,102192.47
2023-04-16T18:59:12.217Z,102196.91
2023-04-16T19:01:54.123Z,102202.25
2023-04-16T19:04:26.913Z,102195.09
2023-04-16T19:06:57.680Z,102202.25
2023-04-16T19:09:27.726Z,102208.47
2023-04-16T19:11:56.141Z,102206.66
2023-04-16T19:14:26.017Z,102206.66
2023-04-16T19:16:55.912Z,102213.84
2023-04-16T19:19:25.056Z,102218.28
2023-04-16T19:21:52.959Z,102212.00
2023-04-16T19:24:20.973Z,102218.16
2023-04-16T19:26:49.354Z,102225.31
2023-04-16T19:29:18.157Z,102228.88
2023-04-16T19:31:48.482Z,102224.44
2023-04-16T19:34:20.072Z,102222.66
2023-04-16T19:36:47.942Z,102225.31
2023-04-16T19:39:15.993Z,102231.56
2023-04-16T19:41:43.936Z,102232.50
2023-04-16T19:44:12.376Z,102232.53
2023-04-16T19:46:40.309Z,102237.00
2023-04-16T19:49:08.547Z,102240.56
2023-04-16T19:51:38.087Z,102238.78
2023-04-16T19:54:09.745Z,102237.78
2023-04-16T19:56:38.390Z,102238.72
2023-04-16T19:59:06.344Z,102239.47
2023-04-16T20:01:35.621Z,102235.03
2023-04-16T20:04:04.195Z,102242.16
2023-04-16T20:06:34.951Z,102243.97
2023-04-16T20:09:04.888Z,102251.03
2023-04-16T20:11:32.620Z,102241.13
2023-04-16T20:14:01.226Z,102237.47
2023-04-16T20:16:30.108Z,102238.25
2023-04-16T20:19:07.989Z,102239.94
2023-04-16T20:21:36.943Z,102235.47
2023-04-16T20:24:10.449Z,102234.59
2023-04-16T20:26:38.569Z,102242.59
2023-04-16T20:29:06.466Z,102241.75
2023-04-16T20:31:34.304Z,102249.72
2023-04-16T20:34:02.231Z,102244.31
2023-04-16T20:36:29.962Z,102248.81
2023-04-16T20:38:59.397Z,102255.91
2023-04-16T20:41:30.102Z,102244.16
2023-04-16T20:43:58.071Z,102245.94
2023-04-16T20:46:25.814Z,102246.91
2023-04-16T20:48:53.509Z,102246.81
2023-04-16T20:51:21.520Z,102251.34
2023-04-16T20:53:50.101Z,102252.22
2023-04-16T20:56:17.828Z,102254.09
2023-04-16T20:58:46.965Z,102245.16
2023-04-16T21:01:14.841Z,102249.66
2023-04-16T21:03:42.992Z,102250.47
2023-04-16T21:06:14.351Z,102251.31
2023-04-16T21:08:42.125Z,102255.78
2023-04-16T21:11:09.842Z,102252.16
2023-04-16T21:13:38.138Z,102253.06
2023-04-16T21:16:09.728Z,102254.78
2023-04-16T21:18:37.903Z,102257.50
2023-04-16T21:21:05.809Z,102256.59
2023-04-16T21:23:33.620Z,102255.72
2023-04-16T21:26:01.305Z,102254.72
2023-04-16T21:28:29.414Z,102256.47
2023-04-16T21:30:57.472Z,102258.28
2023-04-16T21:33:26.646Z,102255.63
2023-04-16T21:35:54.779Z,102254.78
2023-04-16T21:38:23.310Z,102248.53
2023-04-16T21:40:53.937Z,102248.53
2023-04-16T21:43:21.774Z,102251.22
2023-04-16T21:45:49.641Z,102249.50
2023-04-16T21:48:17.385Z,102244.22
2023-04-16T21:50:46.506Z,102250.50
2023-04-16T21:53:14.365Z,102251.28
2023-04-16T21:55:42.185Z,102244.16
2023-04-16T21:58:09.989Z,102253.97
2023-04-16T22:00:37.973Z,102252.09
2023-04-16T22:03:05.974Z,102244.00
2023-04-16T22:05:33.771Z,102248.44
2023-04-16T22:08:16.878Z,102246.69
2023-04-16T22:10:45.072Z,102246.66
2023-04-16T22:13:13.809Z,102250.19
2023-04-16T22:15:42.191Z,102246.69
2023-04-16T22:18:10.394Z,102244.03
2023-04-16T22:20:39.795Z,102238.69
2023-04-16T22:23:08.966Z,102240.53
2023-04-16T22:25:36.850Z,102244.13
2023-04-16T22:28:04.647Z,102240.56
2023-04-16T22:30:32.481Z,102246.81
2023-04-16T22:33:00.986Z,102244.13
2023-04-16T22:35:28.776Z,102243.22
2023-04-16T22:37:56.574Z,102236.00
2023-04-16T22:40:25.672Z,102248.50
2023-04-16T22:42:53.416Z,102247.56
2023-04-16T22:45:21.204Z,102240.41
2023-04-16T22:47:48.973Z,102244.72
2023-04-16T22:50:17.473Z,102249.22
2023-04-16T22:52:45.226Z,102241.22
2023-04-16T22:55:12.974Z,102240.34
2023-04-16T22:57:42.171Z,102235.84
2023-04-16T23:00:15.368Z,102242.16
2023-04-16T23:02:43.271Z,102238.53
2023-04-16T23:05:11.665Z,102234.13
2023-04-16T23:07:39.635Z,102240.25
2023-04-16T23:10:08.931Z,102241.97
2023-04-16T23:12:38.110Z,102239.22
2023-04-16T23:15:08.848Z,102238.31
2023-04-16T23:17:36.918Z,102239.25
2023-04-16T23:20:07.643Z,102244.72
2023-04-16T23:22:35.997Z,102239.25
2023-04-16T23:25:03.774Z,102243.75
2023-04-16T23:27:32.478Z,102242.03
2023-04-16T23:30:00.344Z,102242.94
2023-04-16T23:32:29.516Z,102240.41
2023-04-16T23:34:57.487Z,102234.81
2023-04-16T23:37:25.400Z,102239.22
2023-04-16T23:39:53.175Z,102244.53
2023-04-16T23:42:20.991Z,102239.22
2023-04-16T23:44:48.739Z,102239.28
2023-04-16T23:47:16.422Z,102237.50
2023-04-16T23:49:45.505Z,102241.97
2023-04-16T23:52:13.302Z,102235.78
2023-04-16T23:54:41.232Z,102241.97
2023-04-16T23:57:09.071Z,102236.66
2023-04-16T23:59:36.772Z,102232.16
